Time;durP1;ratioP1;P1;durP2;ratioP2;P2;SDS_P1;SDS_P2;PMS_P1;PMS_P2;Temp;Humidity;BMP_temperature;BMP_pressure;BME280_temperature;BME280_humidity;BME280_pressure;Samples;Min_cycle;Max_cycle;Signal;HPM_P1;HPM_P2
2024/03/11 00:00:17;;;;;;;158.15;148.98;;;8.70;99.90;;;;;;5032317;28;20054;-77
2024/03/11 00:02:46;;;;;;;162.27;152.63;;;8.60;99.90;;;;;;5046618;28;20037;-76
2024/03/11 00:05:13;;;;;;;181.35;170.43;;;8.60;99.90;;;;;;5033171;28;20021;-77
2024/03/11 00:07:40;;;;;;;160.57;151.13;;;8.50;99.90;;;;;;5045658;28;20064;-76
2024/03/11 00:10:11;;;;;;;165.05;155.02;;;8.50;99.90;;;;;;5044618;28;20045;-76
2024/03/11 00:12:50;;;;;;;124.32;117.05;;;8.50;99.90;;;;;;5032263;28;20049;-76
2024/03/11 00:15:16;;;;;;;136.57;128.63;;;8.50;99.90;;;;;;5035872;28;20029;-75
2024/03/11 00:17:42;;;;;;;159.93;150.55;;;8.50;99.90;;;;;;5051799;28;20044;-77
2024/03/11 00:20:09;;;;;;;142.05;133.85;;;8.50;99.90;;;;;;5052380;28;20032;-76
2024/03/11 00:22:37;;;;;;;147.13;138.73;;;8.50;99.90;;;;;;5033526;28;20052;-77
2024/03/11 00:25:06;;;;;;;150.50;142.10;;;8.40;99.90;;;;;;5032482;28;20037;-76
2024/03/11 00:27:36;;;;;;;172.73;162.88;;;8.40;99.90;;;;;;5050250;28;20390;-76
2024/03/11 00:30:08;;;;;;;178.75;168.70;;;8.40;99.90;;;;;;5052269;28;20032;-76
2024/03/11 00:32:38;;;;;;;188.75;177.98;;;8.40;99.90;;;;;;5050677;28;20491;-77
2024/03/11 00:35:06;;;;;;;145.57;137.13;;;8.30;99.90;;;;;;5051650;28;20048;-76
2024/03/11 00:37:32;;;;;;;171.15;161.05;;;8.40;99.90;;;;;;5051623;28;20025;-76
2024/03/11 00:39:58;;;;;;;208.35;195.82;;;8.30;99.90;;;;;;5052197;28;20036;-76
2024/03/11 00:42:24;;;;;;;193.00;181.35;;;8.30;99.90;;;;;;5052110;28;20028;-76
2024/03/11 00:44:50;;;;;;;161.50;151.77;;;8.10;99.90;;;;;;5048583;28;20439;-76
2024/03/11 00:47:23;;;;;;;215.13;202.13;;;8.20;99.90;;;;;;5051018;28;20372;-76
2024/03/11 00:49:49;;;;;;;237.98;223.75;;;8.20;99.90;;;;;;5051978;28;20029;-76
2024/03/11 00:52:15;;;;;;;214.05;201.07;;;8.20;99.90;;;;;;5051812;28;20044;-76
2024/03/11 00:54:42;;;;;;;201.03;187.83;;;8.20;99.90;;;;;;5051909;28;20044;-76
2024/03/11 00:57:08;;;;;;;214.10;201.00;;;8.10;99.90;;;;;;5051472;28;20403;-77
2024/03/11 00:59:35;;;;;;;182.73;172.07;;;8.10;99.90;;;;;;5051643;28;20025;-76
2024/03/11 01:02:01;;;;;;;221.13;207.23;;;8.10;99.90;;;;;;5050965;28;20395;-76
2024/03/11 01:04:28;;;;;;;181.35;170.95;;;8.00;99.90;;;;;;5052042;28;20036;-76
2024/03/11 01:06:54;;;;;;;161.57;152.30;;;8.00;99.90;;;;;;5051621;28;20036;-76
2024/03/11 01:09:20;;;;;;;160.30;150.68;;;8.00;99.90;;;;;;5051477;28;20037;-76
2024/03/11 01:11:47;;;;;;;178.20;167.93;;;7.90;99.90;;;;;;5038339;28;20052;-76
2024/03/11 01:14:14;;;;;;;138.50;130.63;;;8.00;99.90;;;;;;5031628;28;20384;-76
2024/03/11 01:16:40;;;;;;;143.93;135.25;;;8.10;99.90;;;;;;5031243;28;20077;-77
2024/03/11 01:19:07;;;;;;;147.20;138.48;;;8.00;99.90;;;;;;5049069;28;20387;-76
2024/03/11 01:21:36;;;;;;;136.07;128.07;;;8.00;99.90;;;;;;5053273;28;20036;-76
2024/03/11 01:24:10;;;;;;;118.82;111.72;;;8.10;99.90;;;;;;5055862;28;20364;-76
2024/03/11 01:26:36;;;;;;;116.78;110.07;;;8.10;99.90;;;;;;5055262;28;20037;-76
2024/03/11 01:29:02;;;;;;;162.43;152.88;;;8.10;99.90;;;;;;5055066;28;20060;-76
2024/03/11 01:31:28;;;;;;;170.25;160.20;;;8.10;99.90;;;;;;5054995;28;20399;-76
2024/03/11 01:33:55;;;;;;;157.00;147.82;;;8.10;99.90;;;;;;5055709;28;20372;-77
2024/03/11 01:36:21;;;;;;;141.93;133.55;;;8.00;99.90;;;;;;5055268;28;20025;-77
2024/03/11 01:38:47;;;;;;;158.77;149.50;;;8.10;99.90;;;;;;5055281;28;20036;-77
2024/03/11 01:41:16;;;;;;;168.65;158.30;;;8.10;99.90;;;;;;5055270;28;20033;-77
2024/03/11 01:43:42;;;;;;;142.25;134.02;;;8.10;99.90;;;;;;5054979;28;20052;-76
2024/03/11 01:46:09;;;;;;;142.15;133.75;;;8.10;99.90;;;;;;5054706;28;20479;-77
2024/03/11 01:48:35;;;;;;;159.55;150.20;;;8.10;99.90;;;;;;5054935;28;20403;-77
2024/03/11 01:51:03;;;;;;;167.65;157.77;;;8.20;99.90;;;;;;5053622;28;20056;-76
2024/03/11 01:53:30;;;;;;;152.50;143.48;;;8.10;99.90;;;;;;5053707;28;20037;-76
2024/03/11 01:55:56;;;;;;;167.18;157.25;;;8.10;99.90;;;;;;5053794;28;20025;-76
2024/03/11 01:58:23;;;;;;;171.68;161.65;;;8.10;99.90;;;;;;5053476;28;20037;-76
2024/03/11 02:00:49;;;;;;;158.07;148.52;;;8.10;99.90;;;;;;5053243;28;20058;-76
2024/03/11 02:03:15;;;;;;;159.07;149.95;;;8.10;99.90;;;;;;5053765;28;20396;-77
2024/03/11 02:05:42;;;;;;;155.02;145.98;;;8.10;99.90;;;;;;5054833;28;20033;-77
2024/03/11 02:08:08;;;;;;;151.95;142.65;;;8.20;99.90;;;;;;5053108;28;20045;-77
2024/03/11 02:10:35;;;;;;;158.40;149.32;;;8.20;99.90;;;;;;5051218;28;20029;-77
2024/03/11 02:13:01;;;;;;;153.15;144.18;;;8.20;99.90;;;;;;5034622;28;20042;-76
2024/03/11 02:15:27;;;;;;;150.45;141.63;;;8.20;99.90;;;;;;5033771;28;20025;-76
2024/03/11 02:17:54;;;;;;;177.23;166.77;;;8.30;99.90;;;;;;5040687;28;20029;-77
2024/03/11 02:20:21;;;;;;;140.80;132.52;;;8.30;99.90;;;;;;5054417;28;20471;-77
2024/03/11 02:22:48;;;;;;;135.32;126.90;;;8.20;99.90;;;;;;5053358;28;20048;-76
2024/03/11 02:25:19;;;;;;;120.60;113.55;;;8.20;99.90;;;;;;5054581;28;20029;-77
2024/03/11 02:27:49;;;;;;;145.90;137.48;;;8.30;99.90;;;;;;5054099;28;20036;-76
2024/03/11 02:30:16;;;;;;;147.45;138.50;;;8.30;99.90;;;;;;5053902;28;20045;-76
2024/03/11 02:32:42;;;;;;;134.82;126.57;;;8.30;99.90;;;;;;5052298;28;20048;-76
2024/03/11 02:35:09;;;;;;;152.98;143.90;;;8.30;99.90;;;;;;5054407;28;20029;-76
2024/03/11 02:37:35;;;;;;;132.23;124.25;;;8.30;99.90;;;;;;5037377;28;20052;-76
2024/03/11 02:40:06;;;;;;;144.98;136.43;;;8.30;99.90;;;;;;5053217;28;20033;-76
2024/03/11 02:42:34;;;;;;;146.02;137.48;;;8.30;99.90;;;;;;5053518;28;20049;-76
2024/03/11 02:45:00;;;;;;;135.23;127.07;;;8.40;99.90;;;;;;5054237;28;20045;-76
2024/03/11 02:47:26;;;;;;;141.40;133.27;;;8.40;99.90;;;;;;5053306;28;20033;-76
2024/03/11 02:49:53;;;;;;;123.75;116.35;;;8.30;99.90;;;;;;5054320;28;20056;-76
2024/03/11 02:52:21;;;;;;;151.43;142.50;;;8.30;99.90;;;;;;5053963;28;20056;-76
2024/03/11 02:54:50;;;;;;;146.52;137.90;;;8.30;99.90;;;;;;5054414;28;20029;-76
2024/03/11 02:57:17;;;;;;;158.10;148.88;;;8.30;99.90;;;;;;5053554;28;20056;-75
2024/03/11 02:59:44;;;;;;;139.65;131.45;;;8.40;99.90;;;;;;5053522;28;20490;-76
2024/03/11 03:02:10;;;;;;;164.40;154.90;;;8.40;99.90;;;;;;5047265;28;20088;-75
2024/03/11 03:04:39;;;;;;;185.50;174.27;;;8.30;99.90;;;;;;5037767;28;20022;-75
2024/03/11 03:07:06;;;;;;;208.07;195.63;;;8.30;99.90;;;;;;5040557;28;20097;-76
2024/03/11 03:09:33;;;;;;;202.30;190.32;;;8.30;99.90;;;;;;5049231;28;20040;-76
2024/03/11 03:12:02;;;;;;;192.68;181.43;;;8.20;99.90;;;;;;5050181;28;20049;-76
2024/03/11 03:14:30;;;;;;;155.70;146.73;;;8.20;99.90;;;;;;5047935;28;20049;-77
2024/03/11 03:16:57;;;;;;;211.88;199.30;;;8.00;99.90;;;;;;5044497;28;20041;-76
2024/03/11 03:19:23;;;;;;;194.13;182.38;;;7.80;99.90;;;;;;5052242;28;20376;-76
2024/03/11 03:21:50;;;;;;;182.32;171.60;;;7.70;99.90;;;;;;5052179;28;20549;-77
2024/03/11 03:24:16;;;;;;;167.52;157.50;;;7.60;99.90;;;;;;5036878;28;20025;-76
2024/03/11 03:26:43;;;;;;;195.50;183.45;;;7.50;99.90;;;;;;5039720;28;20045;-76
2024/03/11 03:29:09;;;;;;;156.75;147.13;;;7.50;99.90;;;;;;5032189;28;20037;-76
2024/03/11 03:31:37;;;;;;;169.10;158.55;;;7.50;99.90;;;;;;5041883;28;20048;-76
2024/03/11 03:34:06;;;;;;;170.68;159.25;;;7.40;99.90;;;;;;5052378;28;20044;-76
2024/03/11 03:36:32;;;;;;;153.45;143.57;;;7.40;99.90;;;;;;5045955;28;20029;-76
2024/03/11 03:38:58;;;;;;;195.25;183.10;;;7.40;99.90;;;;;;5040314;28;20117;-76
2024/03/11 03:41:24;;;;;;;161.05;151.18;;;7.40;99.90;;;;;;5043482;28;20033;-76
2024/03/11 03:43:53;;;;;;;181.75;169.73;;;7.40;99.90;;;;;;5052420;28;20045;-76
2024/03/11 03:46:22;;;;;;;154.55;145.02;;;7.30;99.90;;;;;;5052295;28;20032;-76
2024/03/11 03:48:48;;;;;;;155.43;146.30;;;7.20;99.90;;;;;;5052348;28;20033;-75
2024/03/11 03:51:18;;;;;;;141.68;133.20;;;7.20;99.90;;;;;;5052900;28;20029;-76
2024/03/11 03:53:45;;;;;;;143.13;134.45;;;7.20;99.90;;;;;;5051359;28;20037;-76
2024/03/11 03:56:11;;;;;;;140.50;131.80;;;7.30;99.90;;;;;;5052733;28;20068;-76
2024/03/11 03:58:37;;;;;;;128.68;120.97;;;7.50;99.90;;;;;;5052743;28;20041;-76
2024/03/11 04:01:03;;;;;;;117.20;110.10;;;7.60;99.90;;;;;;5052257;28;20036;-75
2024/03/11 04:03:29;;;;;;;124.60;116.97;;;7.70;99.90;;;;;;5052598;28;20037;-75
2024/03/11 04:05:56;;;;;;;124.32;116.72;;;7.70;99.90;;;;;;5052537;28;20048;-76
2024/03/11 04:08:23;;;;;;;153.93;144.63;;;7.80;99.90;;;;;;5051898;28;20388;-76
2024/03/11 04:10:49;;;;;;;141.10;132.23;;;7.70;99.90;;;;;;5047103;28;20045;-76
2024/03/11 04:13:16;;;;;;;129.82;121.95;;;7.70;99.90;;;;;;5031785;28;20025;-76
2024/03/11 04:15:42;;;;;;;133.18;124.78;;;7.70;99.90;;;;;;5032213;28;20492;-76
2024/03/11 04:18:10;;;;;;;155.55;145.90;;;7.80;99.90;;;;;;5036126;28;20499;-76
2024/03/11 04:20:37;;;;;;;149.23;140.18;;;7.80;99.90;;;;;;5052457;28;20025;-76
2024/03/11 04:23:07;;;;;;;132.38;124.15;;;7.70;99.90;;;;;;5052111;28;20040;-76
2024/03/11 04:25:37;;;;;;;140.60;131.70;;;7.70;99.90;;;;;;5051917;28;20056;-76
2024/03/11 04:28:03;;;;;;;138.07;129.65;;;7.90;99.90;;;;;;5052008;28;20021;-76
2024/03/11 04:30:35;;;;;;;140.02;131.50;;;7.80;99.90;;;;;;5051603;28;20056;-76
2024/03/11 04:33:01;;;;;;;141.07;132.45;;;7.70;99.90;;;;;;5052269;28;20590;-76
2024/03/11 04:35:29;;;;;;;130.55;122.57;;;7.70;99.90;;;;;;5052027;28;20029;-76
2024/03/11 04:37:58;;;;;;;137.23;128.68;;;7.50;99.90;;;;;;5051718;28;20434;-76
2024/03/11 04:40:25;;;;;;;114.85;107.75;;;7.50;99.90;;;;;;5052055;28;20029;-76
2024/03/11 04:42:52;;;;;;;147.07;137.90;;;7.50;99.90;;;;;;5050902;28;20499;-76
2024/03/11 04:45:19;;;;;;;128.32;120.53;;;7.50;99.90;;;;;;5050095;28;20040;-76
2024/03/11 04:47:45;;;;;;;124.13;116.65;;;7.60;99.90;;;;;;5051950;28;20375;-77
2024/03/11 04:50:12;;;;;;;120.20;112.75;;;7.60;99.90;;;;;;5051747;28;20037;-76
2024/03/11 04:52:38;;;;;;;123.10;115.38;;;7.60;99.90;;;;;;5052044;28;20044;-76
2024/03/11 04:55:06;;;;;;;144.73;135.70;;;7.50;99.90;;;;;;5051982;28;20025;-77
2024/03/11 04:57:33;;;;;;;121.68;114.35;;;7.50;99.90;;;;;;5052038;28;20045;-76
2024/03/11 04:59:59;;;;;;;127.05;119.20;;;7.50;99.90;;;;;;5051675;28;20040;-76
2024/03/11 05:02:25;;;;;;;144.15;135.38;;;7.50;99.90;;;;;;5051368;28;20400;-76
2024/03/11 05:04:51;;;;;;;151.00;141.60;;;7.40;99.90;;;;;;5052016;28;20044;-76
2024/03/11 05:07:17;;;;;;;134.95;126.35;;;7.30;99.90;;;;;;5051568;28;20092;-76
2024/03/11 05:09:43;;;;;;;143.00;134.07;;;7.20;99.90;;;;;;5051324;28;20395;-76
2024/03/11 05:12:10;;;;;;;131.07;123.28;;;7.10;99.90;;;;;;5035186;28;20026;-76
2024/03/11 05:14:38;;;;;;;181.35;170.05;;;7.00;99.90;;;;;;5032120;28;20375;-76
2024/03/11 05:17:05;;;;;;;129.25;121.25;;;7.00;99.90;;;;;;5030682;28;20050;-76
2024/03/11 05:19:31;;;;;;;133.60;125.45;;;7.00;99.90;;;;;;5045992;28;20048;-76
2024/03/11 05:21:57;;;;;;;150.60;141.50;;;7.10;99.90;;;;;;5049830;28;20037;-76
2024/03/11 05:24:23;;;;;;;135.97;127.63;;;7.10;99.90;;;;;;5052027;28;20036;-76
2024/03/11 05:26:50;;;;;;;125.13;117.43;;;7.00;99.90;;;;;;5051404;28;20604;-76
2024/03/11 05:29:16;;;;;;;139.63;130.85;;;6.90;99.90;;;;;;5040083;28;20057;-75
2024/03/11 05:31:42;;;;;;;142.27;133.93;;;6.90;99.90;;;;;;5043853;28;20510;-76
2024/03/11 05:34:08;;;;;;;141.13;128.87;;;6.80;99.90;;;;;;5052135;28;20036;-75
2024/03/11 05:36:34;;;;;;;138.30;129.87;;;6.90;99.90;;;;;;5051005;28;20037;-76
2024/03/11 05:39:01;;;;;;;112.20;105.30;;;6.90;99.90;;;;;;5042893;28;20028;-76
2024/03/11 05:41:27;;;;;;;125.43;117.80;;;7.00;99.90;;;;;;5041775;28;20056;-76
2024/03/11 05:43:53;;;;;;;138.93;130.17;;;7.00;99.90;;;;;;5051639;28;20041;-75
2024/03/11 05:46:19;;;;;;;130.00;122.13;;;7.00;99.90;;;;;;5050818;28;20041;-76
2024/03/11 05:48:45;;;;;;;177.27;166.30;;;7.00;99.90;;;;;;5044516;28;20037;-76
2024/03/11 05:51:11;;;;;;;115.43;108.03;;;6.90;99.90;;;;;;5037893;28;20025;-76
2024/03/11 05:53:37;;;;;;;149.67;140.57;;;6.90;99.90;;;;;;5039598;28;20375;-76
2024/03/11 05:56:07;;;;;;;125.00;117.57;;;6.80;99.90;;;;;;5051470;28;20487;-76
2024/03/11 05:58:33;;;;;;;136.33;128.10;;;6.80;99.90;;;;;;5047671;28;20405;-76
2024/03/11 06:00:59;;;;;;;143.87;135.03;;;6.90;99.90;;;;;;5037993;28;20040;-76
2024/03/11 06:03:25;;;;;;;119.33;112.10;;;6.90;99.90;;;;;;5051325;28;20033;-76
2024/03/11 06:05:52;;;;;;;142.63;134.07;;;6.90;99.90;;;;;;5051417;28;20049;-76
2024/03/11 06:08:18;;;;;;;112.70;105.32;;;6.90;99.90;;;;;;5052635;28;20017;-73
2024/03/11 06:10:44;;;;;;;109.85;102.68;;;7.00;99.90;;;;;;5046209;28;20049;-76
2024/03/11 06:13:10;;;;;;;122.87;115.23;;;7.10;99.90;;;;;;5034889;28;20049;-76
2024/03/11 06:15:37;;;;;;;145.90;137.40;;;7.30;99.90;;;;;;5034453;28;20029;-76
2024/03/11 06:18:04;;;;;;;153.63;139.17;;;7.40;99.90;;;;;;5034576;28;20042;-75
2024/03/11 06:20:30;;;;;;;119.45;111.90;;;7.40;99.90;;;;;;5034443;28;20037;-76
2024/03/11 06:22:59;;;;;;;107.37;100.63;;;7.40;99.90;;;;;;5040429;28;20048;-75
2024/03/11 06:25:25;;;;;;;128.63;120.55;;;7.50;99.90;;;;;;5054529;28;20064;-76
2024/03/11 06:27:51;;;;;;;144.57;135.77;;;7.50;99.90;;;;;;5052493;28;20045;-75
2024/03/11 06:30:17;;;;;;;137.98;129.55;;;7.40;99.90;;;;;;5051602;28;20041;-75
2024/03/11 06:32:48;;;;;;;116.43;109.22;;;7.40;99.90;;;;;;5054122;28;20032;-75
2024/03/11 06:35:15;;;;;;;144.77;135.98;;;7.30;99.90;;;;;;5051765;28;20049;-76
2024/03/11 06:37:45;;;;;;;149.10;139.80;;;7.30;99.90;;;;;;5045046;28;20060;-76
2024/03/11 06:40:16;;;;;;;127.72;119.78;;;7.30;99.90;;;;;;5040029;28;20041;-76
2024/03/11 06:42:44;;;;;;;134.85;126.90;;;7.40;99.90;;;;;;5035592;28;20412;-76
2024/03/11 06:45:10;;;;;;;133.10;125.00;;;7.50;99.90;;;;;;5035263;28;20037;-76
2024/03/11 06:47:36;;;;;;;129.10;121.00;;;7.40;99.90;;;;;;5045098;28;20396;-75
2024/03/11 06:50:02;;;;;;;117.00;109.78;;;7.40;99.90;;;;;;5035984;28;20044;-76
2024/03/11 06:52:29;;;;;;;147.37;138.37;;;7.50;99.90;;;;;;5036370;28;20690;-76
2024/03/11 06:54:55;;;;;;;153.35;143.93;;;7.50;99.90;;;;;;5054058;28;20033;-76
2024/03/11 06:57:21;;;;;;;139.43;130.50;;;7.60;99.90;;;;;;5052517;28;20040;-76
2024/03/11 06:59:47;;;;;;;167.43;157.20;;;7.50;99.90;;;;;;5043330;28;20034;-76
2024/03/11 07:02:13;;;;;;;171.25;160.60;;;7.60;99.90;;;;;;5033105;28;20033;-75
2024/03/11 07:04:39;;;;;;;164.45;154.52;;;7.70;99.90;;;;;;5048723;28;20033;-75
2024/03/11 07:07:06;;;;;;;163.02;152.93;;;7.70;99.90;;;;;;5052605;28;20025;-75
2024/03/11 07:09:34;;;;;;;129.13;120.72;;;7.80;99.90;;;;;;5053327;28;20052;-75
2024/03/11 07:12:00;;;;;;;148.32;139.25;;;7.90;99.90;;;;;;5041683;28;20475;-74
2024/03/11 07:14:26;;;;;;;202.50;189.85;;;7.90;99.90;;;;;;5034031;28;20029;-74
2024/03/11 07:16:53;;;;;;;170.55;159.95;;;8.00;99.90;;;;;;5032106;28;20041;-75
2024/03/11 07:19:25;;;;;;;198.85;186.38;;;8.00;99.90;;;;;;5032792;28;20025;-75
2024/03/11 07:21:51;;;;;;;187.20;175.45;;;8.20;99.90;;;;;;5047178;28;20044;-75
2024/03/11 07:24:19;;;;;;;161.75;151.70;;;8.30;99.90;;;;;;5053730;28;20025;-75
2024/03/11 07:26:45;;;;;;;150.45;141.13;;;8.30;99.90;;;;;;5051439;28;20024;-75
2024/03/11 07:29:11;;;;;;;161.45;151.18;;;8.30;99.90;;;;;;5053558;28;20037;-75
2024/03/11 07:31:40;;;;;;;152.82;143.50;;;8.30;99.90;;;;;;5052038;28;20418;-75
2024/03/11 07:34:06;;;;;;;167.32;157.10;;;8.40;99.90;;;;;;5040909;28;20029;-75
2024/03/11 07:36:35;;;;;;;159.50;149.48;;;8.50;99.90;;;;;;5052819;28;20488;-75
2024/03/11 07:39:02;;;;;;;162.20;152.18;;;8.60;99.90;;;;;;5051382;28;20049;-74
2024/03/11 07:41:28;;;;;;;204.73;190.85;;;8.70;99.90;;;;;;5046336;28;20068;-75
2024/03/11 07:43:55;;;;;;;231.55;217.63;;;8.80;99.90;;;;;;5049457;28;20049;-75
2024/03/11 07:46:21;;;;;;;206.75;194.55;;;8.90;99.90;;;;;;5044341;28;20399;-75
2024/03/11 07:48:48;;;;;;;212.45;199.57;;;9.00;99.90;;;;;;5053172;28;20021;-75
2024/03/11 07:51:15;;;;;;;220.43;206.30;;;9.00;99.90;;;;;;5052668;28;20063;-75
2024/03/11 07:53:41;;;;;;;219.23;205.75;;;9.00;99.90;;;;;;5053104;28;20013;-75
2024/03/11 07:56:09;;;;;;;208.60;195.82;;;9.10;99.90;;;;;;5049069;28;20040;-75
2024/03/11 07:58:36;;;;;;;223.80;209.88;;;9.20;99.90;;;;;;5031612;28;20033;-75
2024/03/11 08:01:02;;;;;;;228.82;214.82;;;9.20;99.90;;;;;;5039117;28;20029;-76
2024/03/11 08:03:28;;;;;;;231.38;217.35;;;9.30;99.90;;;;;;5039131;28;20041;-76
2024/03/11 08:05:56;;;;;;;254.77;239.30;;;9.30;99.90;;;;;;5038650;28;20029;-76
2024/03/11 08:08:24;;;;;;;253.05;237.98;;;9.40;99.90;;;;;;5052538;28;20051;-75
2024/03/11 08:10:50;;;;;;;256.05;183.75;;;9.40;99.90;;;;;;5046916;28;20058;-76
2024/03/11 08:13:18;;;;;;;179.57;168.98;;;9.60;99.90;;;;;;5032904;28;20468;-75
2024/03/11 08:15:44;;;;;;;226.75;212.98;;;9.90;99.90;;;;;;5030004;28;20044;-76
2024/03/11 08:18:10;;;;;;;276.05;259.58;;;10.10;99.90;;;;;;5030286;28;20038;-76
2024/03/11 08:20:37;;;;;;;179.52;169.43;;;10.20;99.90;;;;;;5046755;28;20035;-76
2024/03/11 08:23:03;;;;;;;754.17;488.80;;;10.50;99.90;;;;;;5052499;28;20032;-76
2024/03/11 08:25:31;;;;;;;1999.90;999.90;;;10.90;99.90;;;;;;5052046;28;20037;-77
2024/03/11 08:27:57;;;;;;;1999.90;999.90;;;11.20;99.90;;;;;;5037051;28;20026;-76
2024/03/11 08:30:27;;;;;;;1999.90;999.90;;;11.30;99.90;;;;;;5032668;28;20041;-76
2024/03/11 08:32:56;;;;;;;1999.90;999.90;;;11.40;99.90;;;;;;5051385;28;20020;-76
2024/03/11 08:35:23;;;;;;;1999.90;999.90;;;11.30;99.90;;;;;;5050647;28;20299;-76
2024/03/11 08:37:50;;;;;;;1999.90;999.90;;;11.30;99.90;;;;;;5036063;28;20025;-76
2024/03/11 08:40:17;;;;;;;1999.90;999.90;;;11.30;99.90;;;;;;5032831;28;20029;-76
2024/03/11 08:42:47;;;;;;;1999.90;999.90;;;11.30;99.90;;;;;;5051963;28;20068;-76
2024/03/11 08:45:17;;;;;;;1999.90;999.90;;;11.30;99.90;;;;;;5051172;28;20025;-76
2024/03/11 08:47:47;;;;;;;1999.90;999.90;;;11.30;99.90;;;;;;5052350;28;20037;-76
2024/03/11 08:50:16;;;;;;;293.70;275.85;;;11.10;99.90;;;;;;5051845;28;20053;-77
2024/03/11 08:52:45;;;;;;;316.42;297.20;;;11.00;99.90;;;;;;5052145;28;20391;-76
2024/03/11 08:55:13;;;;;;;266.38;251.73;;;11.00;99.90;;;;;;5043117;28;20041;-76
2024/03/11 08:57:40;;;;;;;288.88;272.25;;;11.00;99.90;;;;;;5049330;28;20044;-76
2024/03/11 09:00:11;;;;;;;269.42;254.40;;;11.00;99.90;;;;;;5041413;28;20041;-76
2024/03/11 09:02:41;;;;;;;251.90;238.02;;;11.00;99.90;;;;;;5039174;28;20033;-76
2024/03/11 09:05:12;;;;;;;309.17;291.98;;;11.10;99.90;;;;;;5031610;28;20036;-77
2024/03/11 09:07:41;;;;;;;1999.90;999.90;;;11.10;99.90;;;;;;5030554;28;20056;-77
2024/03/11 09:10:08;;;;;;;1151.45;642.35;;;11.10;99.90;;;;;;5040837;28;20407;-77
2024/03/11 09:12:35;;;;;;;1570.00;815.92;;;11.10;99.90;;;;;;5051228;28;20040;-76
2024/03/11 09:15:01;;;;;;;1999.90;999.90;;;11.10;99.90;;;;;;5051935;28;20357;-77
2024/03/11 09:17:27;;;;;;;276.98;261.35;;;11.00;99.90;;;;;;5039046;28;20038;-76
2024/03/11 09:19:54;;;;;;;346.30;326.13;;;11.10;99.90;;;;;;5041242;28;20040;-77
2024/03/11 09:22:21;;;;;;;1999.90;999.90;;;11.10;99.90;;;;;;5049960;28;20037;-77
2024/03/11 09:24:48;;;;;;;1999.90;999.90;;;11.30;99.90;;;;;;5052001;28;20045;-77
2024/03/11 09:27:17;;;;;;;1999.90;999.90;;;11.50;99.90;;;;;;5040988;28;20041;-77
2024/03/11 09:29:43;;;;;;;1999.90;999.90;;;11.70;99.90;;;;;;5029965;28;20515;-77
2024/03/11 09:32:09;;;;;;;1999.90;999.90;;;12.10;99.90;;;;;;5037816;28;20037;-77
2024/03/11 09:34:36;;;;;;;1999.90;999.90;;;12.40;99.90;;;;;;5043648;28;20056;-77
2024/03/11 09:37:02;;;;;;;1999.90;999.90;;;12.70;99.90;;;;;;5046390;28;20029;-77
2024/03/11 09:39:29;;;;;;;1999.90;999.90;;;13.00;99.90;;;;;;5031498;28;20049;-74
2024/03/11 09:41:55;;;;;;;1999.90;999.90;;;13.10;99.90;;;;;;5040237;28;20045;-73
2024/03/11 09:44:24;;;;;;;1999.90;999.90;;;12.70;99.90;;;;;;5044130;28;20049;-73
2024/03/11 09:46:50;;;;;;;1999.90;999.90;;;12.60;99.90;;;;;;5054404;28;20041;-73
2024/03/11 09:49:19;;;;;;;1999.90;999.90;;;12.70;99.90;;;;;;5053666;28;20395;-72
2024/03/11 09:51:47;;;;;;;1999.90;999.90;;;12.60;99.90;;;;;;5049250;28;20041;-73
2024/03/11 09:54:13;;;;;;;1999.90;999.90;;;12.50;99.90;;;;;;5035409;28;20038;-73
2024/03/11 09:56:41;;;;;;;1999.90;999.90;;;12.50;99.90;;;;;;5040242;28;20033;-73
2024/03/11 09:59:09;;;;;;;1999.90;999.90;;;12.50;99.90;;;;;;5039416;28;20160;-73
2024/03/11 10:01:42;;;;;;;1999.90;999.90;;;12.50;99.90;;;;;;5042773;28;20391;-74
2024/03/11 10:04:09;;;;;;;1999.90;999.90;;;12.50;99.90;;;;;;5039574;28;20024;-74
2024/03/11 10:06:39;;;;;;;1999.90;999.90;;;12.20;99.90;;;;;;5047047;28;20029;-74
2024/03/11 10:09:18;;;;;;;1999.90;999.90;;;12.20;99.90;;;;;;5041137;28;20025;-74
2024/03/11 10:12:03;;;;;;;1999.90;999.90;;;12.20;99.90;;;;;;5050015;28;20056;-74
2024/03/11 10:14:34;;;;;;;1999.90;999.90;;;12.30;99.90;;;;;;5034677;28;20049;-74
2024/03/11 10:17:28;;;;;;;1999.90;999.90;;;12.60;99.90;;;;;;5048919;28;20044;-74
2024/03/11 10:20:00;;;;;;;1999.90;999.90;;;12.90;99.90;;;;;;5037405;28;20033;-74
2024/03/11 10:22:28;;;;;;;1999.90;999.90;;;13.20;99.90;;;;;;5054425;28;20509;-73
2024/03/11 10:24:58;;;;;;;1999.90;999.90;;;13.40;99.90;;;;;;5054175;28;20041;-73
2024/03/11 10:27:31;;;;;;;1999.90;999.90;;;13.50;99.90;;;;;;5043898;28;20040;-73
2024/03/11 10:29:57;;;;;;;1999.90;999.90;;;13.70;99.90;;;;;;5040734;28;20055;-73
2024/03/11 10:32:38;;;;;;;1999.90;999.90;;;13.80;99.90;;;;;;5053262;28;20037;-74
2024/03/11 10:35:09;;;;;;;1999.90;999.90;;;13.60;99.90;;;;;;5052433;28;20041;-74
2024/03/11 10:37:41;;;;;;;1999.90;999.90;;;13.60;99.90;;;;;;5034534;28;20112;-74
2024/03/11 10:40:16;;;;;;;1999.90;999.90;;;13.70;99.90;;;;;;5034046;28;20029;-74
2024/03/11 10:42:49;;;;;;;1999.90;999.90;;;13.90;99.90;;;;;;5048978;28;20507;-77
2024/03/11 10:45:29;;;;;;;1999.90;999.90;;;13.80;99.90;;;;;;5052244;28;20068;-78
2024/03/11 10:48:00;;;;;;;1999.90;999.90;;;14.00;99.90;;;;;;5054466;28;20029;-78
2024/03/11 10:50:28;;;;;;;1999.90;999.90;;;13.90;99.90;;;;;;5051226;28;20033;-78
2024/03/11 10:52:57;;;;;;;1999.90;999.90;;;13.80;99.90;;;;;;5041605;28;20052;-78
2024/03/11 10:55:28;;;;;;;1999.90;999.90;;;13.90;99.90;;;;;;5051992;28;20036;-75
2024/03/11 10:57:56;;;;;;;1999.90;999.90;;;14.10;99.90;;;;;;5054016;28;20029;-77
2024/03/11 11:00:23;;;;;;;1999.90;999.90;;;14.30;99.90;;;;;;5048270;28;20041;-78
2024/03/11 11:03:08;;;;;;;1999.90;999.90;;;14.50;99.90;;;;;;5041752;28;20036;-77
2024/03/11 11:05:46;;;;;;;1999.90;999.90;;;14.60;99.90;;;;;;5042584;28;20025;-77
2024/03/11 11:08:13;;;;;;;1999.90;999.90;;;14.80;99.90;;;;;;5032696;28;20048;-78
2024/03/11 11:10:41;;;;;;;1999.90;999.90;;;14.60;99.90;;;;;;5045314;28;20388;-77
2024/03/11 11:13:07;;;;;;;1999.90;999.90;;;14.60;99.90;;;;;;5032921;28;20109;-78
2024/03/11 11:15:36;;;;;;;1999.90;999.90;;;14.50;99.90;;;;;;5036891;28;20033;-78
2024/03/11 11:18:07;;;;;;;1999.90;999.90;;;14.50;99.90;;;;;;5053817;28;20029;-78
2024/03/11 11:20:39;;;;;;;1999.90;999.90;;;14.50;99.90;;;;;;5052291;28;20027;-78
2024/03/11 11:23:10;;;;;;;1999.90;999.90;;;14.70;99.90;;;;;;5037491;28;20034;-78
2024/03/11 11:25:41;;;;;;;1999.90;999.90;;;14.80;99.90;;;;;;5036863;28;20375;-78
2024/03/11 11:28:12;;;;;;;1999.90;999.90;;;15.10;99.90;;;;;;5046069;28;20399;-78
2024/03/11 11:30:44;;;;;;;1999.90;999.90;;;15.20;99.90;;;;;;5036198;28;20438;-77
2024/03/11 11:33:11;;;;;;;1999.90;999.90;;;15.30;99.90;;;;;;5053163;28;20033;-79
2024/03/11 11:35:40;;;;;;;1999.90;999.90;;;15.30;99.90;;;;;;5051560;28;20037;-75
2024/03/11 11:38:27;;;;;;;1999.90;999.90;;;15.10;99.90;;;;;;5046576;28;20037;-75
2024/03/11 11:40:53;;;;;;;1999.90;999.90;;;15.20;99.90;;;;;;5037753;28;20064;-76
2024/03/11 11:43:24;;;;;;;1999.90;999.90;;;15.30;99.90;;;;;;5048488;28;20041;-75
2024/03/11 11:45:56;;;;;;;1999.90;999.90;;;15.30;99.90;;;;;;5036260;28;20041;-76
2024/03/11 11:48:27;;;;;;;1999.90;999.90;;;15.30;99.90;;;;;;5052640;28;20025;-76
2024/03/11 11:50:58;;;;;;;1999.90;999.90;;;15.30;99.90;;;;;;5052468;28;20049;-76
2024/03/11 11:53:26;;;;;;;;;;;15.40;99.90;;;;;;5043252;28;20041;-73
2024/03/11 11:55:52;;;;;;;1999.90;999.90;;;15.40;99.90;;;;;;5037500;28;20314;-75
2024/03/11 11:58:18;;;;;;;1999.90;999.90;;;15.00;99.90;;;;;;5051444;28;20400;-75
2024/03/11 12:00:44;;;;;;;1999.90;999.90;;;14.90;99.90;;;;;;5042831;28;20037;-75
2024/03/11 12:03:34;;;;;;;1999.90;999.90;;;14.70;99.90;;;;;;5046533;28;20025;-74
2024/03/11 12:06:20;;;;;;;1999.90;999.90;;;14.70;99.90;;;;;;5041069;28;20399;-74
2024/03/11 12:08:51;;;;;;;1999.90;999.90;;;14.90;99.90;;;;;;5049461;28;20033;-75
2024/03/11 12:11:21;;;;;;;1999.90;999.90;;;15.20;99.90;;;;;;5042794;28;20056;-74
2024/03/11 12:13:47;;;;;;;1999.90;999.90;;;15.30;99.90;;;;;;5037838;28;20029;-75
2024/03/11 12:16:23;;;;;;;1999.90;999.90;;;15.20;99.90;;;;;;5044759;28;20070;-75